Blue Spring, Kentucky
Current Conditions -  °F | °C
As of 9:58 AM on Saturday 22 Nov 2014 (Local Time) from KHOP Reporting Station
Scattered Clouds Scattered Clouds  
Wind Chill: 58°   Ceiling: Unl
Heat Index: 58°   Visibility: 10mi
Dew Point: 36°   Wind: 9mph
Humidity: 44%   Direction: 170°S
Pressure: 30.28"   Gusts: NA
Location:  36.8031°N, 87.8159°W
Report Text: KHOP 221558Z AUTO 17008KT 10SM SCT100 15/02 A3028 RMK AO2 SLP256 T01460023
Loading
Personal Weather Stations






























Interactive Weather Map New forecast layout! Learn more

10-Day Weather Forecast

Advertisements
Track Severe Weather on mobile